sensor_id;sensor_type;location;lat;lon;timestamp;temperature;humidity
37944;DHT22;23767;42.024;23.086;2024-01-27T00:02:20;1.80;99.90
37944;DHT22;23767;42.024;23.086;2024-01-27T00:04:46;1.90;99.90
37944;DHT22;23767;42.024;23.086;2024-01-27T00:07:11;2.10;99.90
37944;DHT22;23767;42.024;23.086;2024-01-27T00:09:37;2.00;99.90
37944;DHT22;23767;42.024;23.086;2024-01-27T00:12:03;1.80;99.90
37944;DHT22;23767;42.024;23.086;2024-01-27T00:14:29;1.70;99.90
37944;DHT22;23767;42.024;23.086;2024-01-27T00:16:54;1.60;99.90
37944;DHT22;23767;42.024;23.086;2024-01-27T00:19:20;1.70;99.90
37944;DHT22;23767;42.024;23.086;2024-01-27T00:21:45;1.70;99.90
37944;DHT22;23767;42.024;23.086;2024-01-27T00:24:13;1.80;99.90
37944;DHT22;23767;42.024;23.086;2024-01-27T00:26:39;1.70;99.90
37944;DHT22;23767;42.024;23.086;2024-01-27T00:29:04;1.90;99.90
37944;DHT22;23767;42.024;23.086;2024-01-27T00:31:30;2.00;99.90
37944;DHT22;23767;42.024;23.086;2024-01-27T00:33:56;2.10;99.90
37944;DHT22;23767;42.024;23.086;2024-01-27T00:36:22;2.20;99.90
37944;DHT22;23767;42.024;23.086;2024-01-27T00:38:47;2.30;99.90
37944;DHT22;23767;42.024;23.086;2024-01-27T00:41:17;2.30;99.90
37944;DHT22;23767;42.024;23.086;2024-01-27T00:43:43;2.20;99.90
37944;DHT22;23767;42.024;23.086;2024-01-27T00:46:09;2.00;99.90
37944;DHT22;23767;42.024;23.086;2024-01-27T00:48:34;2.00;99.90
37944;DHT22;23767;42.024;23.086;2024-01-27T00:51:00;1.50;99.90
37944;DHT22;23767;42.024;23.086;2024-01-27T00:53:25;1.40;99.90
37944;DHT22;23767;42.024;23.086;2024-01-27T00:55:51;1.30;99.90
37944;DHT22;23767;42.024;23.086;2024-01-27T00:58:17;1.40;99.90
37944;DHT22;23767;42.024;23.086;2024-01-27T01:00:42;1.40;99.90
37944;DHT22;23767;42.024;23.086;2024-01-27T01:03:08;1.30;99.90
37944;DHT22;23767;42.024;23.086;2024-01-27T01:05:33;1.30;99.90
37944;DHT22;23767;42.024;23.086;2024-01-27T01:07:59;1.30;99.90
37944;DHT22;23767;42.024;23.086;2024-01-27T01:10:25;1.30;99.90
37944;DHT22;23767;42.024;23.086;2024-01-27T01:12:51;1.10;99.90
37944;DHT22;23767;42.024;23.086;2024-01-27T01:15:17;1.30;99.90
37944;DHT22;23767;42.024;23.086;2024-01-27T01:17:43;1.40;99.90
37944;DHT22;23767;42.024;23.086;2024-01-27T01:20:09;1.40;99.90
37944;DHT22;23767;42.024;23.086;2024-01-27T01:22:35;1.50;99.90
37944;DHT22;23767;42.024;23.086;2024-01-27T01:25:00;1.60;99.90
37944;DHT22;23767;42.024;23.086;2024-01-27T01:27:26;1.60;99.90
37944;DHT22;23767;42.024;23.086;2024-01-27T01:29:52;1.60;99.90
37944;DHT22;23767;42.024;23.086;2024-01-27T01:32:17;1.70;99.90
37944;DHT22;23767;42.024;23.086;2024-01-27T01:34:43;1.70;99.90
37944;DHT22;23767;42.024;23.086;2024-01-27T01:37:11;1.60;99.90
37944;DHT22;23767;42.024;23.086;2024-01-27T01:39:36;1.60;99.90
37944;DHT22;23767;42.024;23.086;2024-01-27T01:42:02;1.70;99.90
37944;DHT22;23767;42.024;23.086;2024-01-27T01:44:30;1.70;99.90
37944;DHT22;23767;42.024;23.086;2024-01-27T01:46:57;1.70;99.90
37944;DHT22;23767;42.024;23.086;2024-01-27T01:49:23;1.70;99.90
37944;DHT22;23767;42.024;23.086;2024-01-27T01:51:49;1.80;99.90
37944;DHT22;23767;42.024;23.086;2024-01-27T01:54:15;1.80;99.90
37944;DHT22;23767;42.024;23.086;2024-01-27T01:56:42;1.80;99.90
37944;DHT22;23767;42.024;23.086;2024-01-27T01:59:08;1.70;99.90
37944;DHT22;23767;42.024;23.086;2024-01-27T02:01:33;1.50;99.90
37944;DHT22;23767;42.024;23.086;2024-01-27T02:03:59;1.30;99.90
37944;DHT22;23767;42.024;23.086;2024-01-27T02:06:25;1.20;99.90
37944;DHT22;23767;42.024;23.086;2024-01-27T02:08:51;1.00;99.90
37944;DHT22;23767;42.024;23.086;2024-01-27T02:11:17;0.80;99.90
37944;DHT22;23767;42.024;23.086;2024-01-27T02:13:43;0.60;99.90
37944;DHT22;23767;42.024;23.086;2024-01-27T02:16:09;0.50;99.90
37944;DHT22;23767;42.024;23.086;2024-01-27T02:18:34;0.60;99.90
37944;DHT22;23767;42.024;23.086;2024-01-27T02:21:00;0.80;99.90
37944;DHT22;23767;42.024;23.086;2024-01-27T02:23:26;0.90;99.90
37944;DHT22;23767;42.024;23.086;2024-01-27T02:25:51;1.00;99.90
37944;DHT22;23767;42.024;23.086;2024-01-27T02:28:17;1.10;99.90
37944;DHT22;23767;42.024;23.086;2024-01-27T02:30:43;1.20;99.90
37944;DHT22;23767;42.024;23.086;2024-01-27T02:33:08;1.30;99.90
37944;DHT22;23767;42.024;23.086;2024-01-27T02:35:34;1.40;99.90
37944;DHT22;23767;42.024;23.086;2024-01-27T02:38:00;1.50;99.90
37944;DHT22;23767;42.024;23.086;2024-01-27T02:40:26;1.50;99.90
37944;DHT22;23767;42.024;23.086;2024-01-27T02:42:52;1.50;99.90
37944;DHT22;23767;42.024;23.086;2024-01-27T02:45:17;1.40;99.90
37944;DHT22;23767;42.024;23.086;2024-01-27T02:47:43;0.90;99.90
37944;DHT22;23767;42.024;23.086;2024-01-27T02:50:09;0.80;99.90
37944;DHT22;23767;42.024;23.086;2024-01-27T02:52:35;1.00;99.90
37944;DHT22;23767;42.024;23.086;2024-01-27T02:55:01;1.20;99.90
37944;DHT22;23767;42.024;23.086;2024-01-27T02:57:26;1.30;99.90
37944;DHT22;23767;42.024;23.086;2024-01-27T02:59:52;1.20;99.90
37944;DHT22;23767;42.024;23.086;2024-01-27T03:02:18;1.10;99.90
37944;DHT22;23767;42.024;23.086;2024-01-27T03:04:43;0.90;99.90
37944;DHT22;23767;42.024;23.086;2024-01-27T03:07:09;1.10;99.90
37944;DHT22;23767;42.024;23.086;2024-01-27T03:09:35;1.10;99.90
37944;DHT22;23767;42.024;23.086;2024-01-27T03:12:01;1.20;99.90
37944;DHT22;23767;42.024;23.086;2024-01-27T03:14:27;1.30;99.90
37944;DHT22;23767;42.024;23.086;2024-01-27T03:16:53;1.40;99.90
37944;DHT22;23767;42.024;23.086;2024-01-27T03:19:19;1.60;99.90
37944;DHT22;23767;42.024;23.086;2024-01-27T03:21:45;1.70;99.90
37944;DHT22;23767;42.024;23.086;2024-01-27T03:24:11;1.80;99.90
37944;DHT22;23767;42.024;23.086;2024-01-27T03:26:37;1.90;99.90
37944;DHT22;23767;42.024;23.086;2024-01-27T03:29:02;2.00;99.90
37944;DHT22;23767;42.024;23.086;2024-01-27T03:31:34;2.00;99.90
37944;DHT22;23767;42.024;23.086;2024-01-27T03:34:00;2.00;99.90
37944;DHT22;23767;42.024;23.086;2024-01-27T03:36:27;1.90;99.90
37944;DHT22;23767;42.024;23.086;2024-01-27T03:38:53;1.90;99.90
37944;DHT22;23767;42.024;23.086;2024-01-27T03:41:18;1.90;99.90
37944;DHT22;23767;42.024;23.086;2024-01-27T03:43:44;2.00;99.90
37944;DHT22;23767;42.024;23.086;2024-01-27T03:46:10;2.00;99.90
37944;DHT22;23767;42.024;23.086;2024-01-27T03:48:35;1.90;99.90
37944;DHT22;23767;42.024;23.086;2024-01-27T03:51:02;2.00;99.90
37944;DHT22;23767;42.024;23.086;2024-01-27T03:53:28;2.00;99.90
37944;DHT22;23767;42.024;23.086;2024-01-27T03:55:54;2.10;99.90
37944;DHT22;23767;42.024;23.086;2024-01-27T03:58:19;2.10;99.90
37944;DHT22;23767;42.024;23.086;2024-01-27T04:00:45;2.20;99.90
37944;DHT22;23767;42.024;23.086;2024-01-27T04:03:11;2.20;99.90
37944;DHT22;23767;42.024;23.086;2024-01-27T04:05:37;2.20;99.90
37944;DHT22;23767;42.024;23.086;2024-01-27T04:08:04;2.30;99.90
37944;DHT22;23767;42.024;23.086;2024-01-27T04:10:30;2.30;99.90
37944;DHT22;23767;42.024;23.086;2024-01-27T04:12:55;2.30;99.90
37944;DHT22;23767;42.024;23.086;2024-01-27T04:15:21;2.30;99.90
37944;DHT22;23767;42.024;23.086;2024-01-27T04:17:47;2.40;99.90
37944;DHT22;23767;42.024;23.086;2024-01-27T04:20:12;2.40;99.90
37944;DHT22;23767;42.024;23.086;2024-01-27T04:22:38;2.50;99.90
37944;DHT22;23767;42.024;23.086;2024-01-27T04:25:05;2.50;99.90
37944;DHT22;23767;42.024;23.086;2024-01-27T04:27:31;2.50;99.90
37944;DHT22;23767;42.024;23.086;2024-01-27T04:29:57;2.50;99.90
37944;DHT22;23767;42.024;23.086;2024-01-27T04:32:23;2.40;99.90
37944;DHT22;23767;42.024;23.086;2024-01-27T04:34:49;2.40;99.90
37944;DHT22;23767;42.024;23.086;2024-01-27T04:37:15;2.40;99.90
37944;DHT22;23767;42.024;23.086;2024-01-27T04:39:40;2.40;99.90
37944;DHT22;23767;42.024;23.086;2024-01-27T04:42:06;2.40;99.90
37944;DHT22;23767;42.024;23.086;2024-01-27T04:44:32;2.40;99.90
37944;DHT22;23767;42.024;23.086;2024-01-27T04:46:58;2.40;99.90
37944;DHT22;23767;42.024;23.086;2024-01-27T04:49:24;2.50;99.90
37944;DHT22;23767;42.024;23.086;2024-01-27T04:51:49;2.40;99.90
37944;DHT22;23767;42.024;23.086;2024-01-27T04:54:15;2.40;99.90
37944;DHT22;23767;42.024;23.086;2024-01-27T04:56:41;2.40;99.90
37944;DHT22;23767;42.024;23.086;2024-01-27T04:59:07;2.40;99.90
37944;DHT22;23767;42.024;23.086;2024-01-27T05:01:33;2.30;99.90
37944;DHT22;23767;42.024;23.086;2024-01-27T05:03:59;2.30;99.90
37944;DHT22;23767;42.024;23.086;2024-01-27T05:06:24;2.30;99.90
37944;DHT22;23767;42.024;23.086;2024-01-27T05:08:50;2.30;99.90
37944;DHT22;23767;42.024;23.086;2024-01-27T05:11:26;2.40;99.90
37944;DHT22;23767;42.024;23.086;2024-01-27T05:13:52;2.30;99.90
37944;DHT22;23767;42.024;23.086;2024-01-27T05:16:17;2.40;99.90
37944;DHT22;23767;42.024;23.086;2024-01-27T05:18:43;2.40;99.90
37944;DHT22;23767;42.024;23.086;2024-01-27T05:21:09;2.30;99.90
37944;DHT22;23767;42.024;23.086;2024-01-27T05:23:34;2.20;99.90
37944;DHT22;23767;42.024;23.086;2024-01-27T05:26:00;2.30;99.90
37944;DHT22;23767;42.024;23.086;2024-01-27T05:28:25;2.30;99.90
37944;DHT22;23767;42.024;23.086;2024-01-27T05:30:51;2.30;99.90
37944;DHT22;23767;42.024;23.086;2024-01-27T05:33:17;2.30;99.90
37944;DHT22;23767;42.024;23.086;2024-01-27T05:35:42;2.20;99.90
37944;DHT22;23767;42.024;23.086;2024-01-27T05:38:08;2.10;99.90
37944;DHT22;23767;42.024;23.086;2024-01-27T05:40:34;2.10;99.90
37944;DHT22;23767;42.024;23.086;2024-01-27T05:43:00;2.00;99.90
37944;DHT22;23767;42.024;23.086;2024-01-27T05:45:25;2.10;99.90
37944;DHT22;23767;42.024;23.086;2024-01-27T05:47:52;1.90;99.90
37944;DHT22;23767;42.024;23.086;2024-01-27T05:50:17;1.60;99.90
37944;DHT22;23767;42.024;23.086;2024-01-27T05:52:43;1.50;99.90
37944;DHT22;23767;42.024;23.086;2024-01-27T05:55:09;1.40;99.90
37944;DHT22;23767;42.024;23.086;2024-01-27T05:57:35;1.40;99.90
37944;DHT22;23767;42.024;23.086;2024-01-27T06:00:01;1.50;99.90
37944;DHT22;23767;42.024;23.086;2024-01-27T06:02:27;1.70;99.90
37944;DHT22;23767;42.024;23.086;2024-01-27T06:04:52;1.80;99.90
37944;DHT22;23767;42.024;23.086;2024-01-27T06:07:18;1.90;99.90
37944;DHT22;23767;42.024;23.086;2024-01-27T06:09:43;2.00;99.90
37944;DHT22;23767;42.024;23.086;2024-01-27T06:12:09;2.10;99.90
37944;DHT22;23767;42.024;23.086;2024-01-27T06:14:35;2.20;99.90
37944;DHT22;23767;42.024;23.086;2024-01-27T06:17:03;2.20;99.90
37944;DHT22;23767;42.024;23.086;2024-01-27T06:19:29;2.40;99.90
37944;DHT22;23767;42.024;23.086;2024-01-27T06:21:55;2.40;99.90
37944;DHT22;23767;42.024;23.086;2024-01-27T06:24:20;2.50;99.90
37944;DHT22;23767;42.024;23.086;2024-01-27T06:26:46;2.50;99.90
37944;DHT22;23767;42.024;23.086;2024-01-27T06:29:12;2.50;99.90
37944;DHT22;23767;42.024;23.086;2024-01-27T06:31:37;2.50;99.90
37944;DHT22;23767;42.024;23.086;2024-01-27T06:34:03;2.50;99.90
37944;DHT22;23767;42.024;23.086;2024-01-27T06:36:29;2.50;99.90
37944;DHT22;23767;42.024;23.086;2024-01-27T06:38:54;2.60;99.90
37944;DHT22;23767;42.024;23.086;2024-01-27T06:41:20;2.70;99.90
37944;DHT22;23767;42.024;23.086;2024-01-27T06:43:46;2.70;99.90
37944;DHT22;23767;42.024;23.086;2024-01-27T06:46:11;2.70;99.90
37944;DHT22;23767;42.024;23.086;2024-01-27T06:48:37;2.70;99.90
37944;DHT22;23767;42.024;23.086;2024-01-27T06:51:04;2.80;99.90
37944;DHT22;23767;42.024;23.086;2024-01-27T06:53:30;2.70;99.90
37944;DHT22;23767;42.024;23.086;2024-01-27T06:55:55;2.70;99.90
37944;DHT22;23767;42.024;23.086;2024-01-27T06:58:21;2.50;99.90
37944;DHT22;23767;42.024;23.086;2024-01-27T07:00:46;2.50;99.90
37944;DHT22;23767;42.024;23.086;2024-01-27T07:03:12;2.50;99.90
37944;DHT22;23767;42.024;23.086;2024-01-27T07:05:38;2.50;99.90
37944;DHT22;23767;42.024;23.086;2024-01-27T07:08:07;2.50;99.90
37944;DHT22;23767;42.024;23.086;2024-01-27T07:10:33;2.40;99.90
37944;DHT22;23767;42.024;23.086;2024-01-27T07:12:58;2.30;99.90
37944;DHT22;23767;42.024;23.086;2024-01-27T07:15:24;2.20;99.90
37944;DHT22;23767;42.024;23.086;2024-01-27T07:17:50;2.30;99.90
37944;DHT22;23767;42.024;23.086;2024-01-27T07:20:15;2.40;99.90
37944;DHT22;23767;42.024;23.086;2024-01-27T07:22:41;2.50;99.90
37944;DHT22;23767;42.024;23.086;2024-01-27T07:25:07;2.50;99.90
37944;DHT22;23767;42.024;23.086;2024-01-27T07:27:35;2.50;99.90
37944;DHT22;23767;42.024;23.086;2024-01-27T07:30:04;2.60;99.90
37944;DHT22;23767;42.024;23.086;2024-01-27T07:32:30;2.60;99.90
37944;DHT22;23767;42.024;23.086;2024-01-27T07:34:56;2.60;99.90
37944;DHT22;23767;42.024;23.086;2024-01-27T07:37:22;2.70;99.90
37944;DHT22;23767;42.024;23.086;2024-01-27T07:39:47;2.50;99.90
37944;DHT22;23767;42.024;23.086;2024-01-27T07:42:16;2.50;99.90
37944;DHT22;23767;42.024;23.086;2024-01-27T07:44:41;2.20;99.90
37944;DHT22;23767;42.024;23.086;2024-01-27T07:47:08;2.30;99.90
37944;DHT22;23767;42.024;23.086;2024-01-27T07:49:34;2.10;99.90
37944;DHT22;23767;42.024;23.086;2024-01-27T07:52:03;2.10;99.90
37944;DHT22;23767;42.024;23.086;2024-01-27T07:54:29;2.20;99.90
37944;DHT22;23767;42.024;23.086;2024-01-27T07:56:54;2.30;99.90
37944;DHT22;23767;42.024;23.086;2024-01-27T07:59:20;2.50;99.90
37944;DHT22;23767;42.024;23.086;2024-01-27T08:01:46;2.70;99.90
37944;DHT22;23767;42.024;23.086;2024-01-27T08:04:11;2.90;99.90
37944;DHT22;23767;42.024;23.086;2024-01-27T08:06:50;2.90;99.90
37944;DHT22;23767;42.024;23.086;2024-01-27T08:09:17;3.00;99.90
37944;DHT22;23767;42.024;23.086;2024-01-27T08:11:43;3.10;99.90
37944;DHT22;23767;42.024;23.086;2024-01-27T08:14:10;3.20;99.90
37944;DHT22;23767;42.024;23.086;2024-01-27T08:16:35;3.10;99.90
37944;DHT22;23767;42.024;23.086;2024-01-27T08:19:01;3.30;99.90
37944;DHT22;23767;42.024;23.086;2024-01-27T08:21:27;3.30;99.90
37944;DHT22;23767;42.024;23.086;2024-01-27T08:23:53;3.40;99.90
37944;DHT22;23767;42.024;23.086;2024-01-27T08:26:20;3.40;99.90
37944;DHT22;23767;42.024;23.086;2024-01-27T08:28:47;3.40;99.90
37944;DHT22;23767;42.024;23.086;2024-01-27T08:31:13;3.40;99.90
37944;DHT22;23767;42.024;23.086;2024-01-27T08:33:38;3.30;99.90
37944;DHT22;23767;42.024;23.086;2024-01-27T08:36:04;3.30;99.90
37944;DHT22;23767;42.024;23.086;2024-01-27T08:38:30;3.50;99.90
37944;DHT22;23767;42.024;23.086;2024-01-27T08:40:55;3.70;99.90
37944;DHT22;23767;42.024;23.086;2024-01-27T08:43:21;3.90;99.90
37944;DHT22;23767;42.024;23.086;2024-01-27T08:45:47;4.00;99.90
37944;DHT22;23767;42.024;23.086;2024-01-27T08:48:12;4.10;99.90
37944;DHT22;23767;42.024;23.086;2024-01-27T08:50:38;4.20;99.90
37944;DHT22;23767;42.024;23.086;2024-01-27T08:53:04;4.20;99.90
37944;DHT22;23767;42.024;23.086;2024-01-27T08:55:30;4.20;99.90
37944;DHT22;23767;42.024;23.086;2024-01-27T08:57:58;4.30;99.90
37944;DHT22;23767;42.024;23.086;2024-01-27T09:00:24;4.20;99.90
37944;DHT22;23767;42.024;23.086;2024-01-27T09:02:51;4.30;99.90
37944;DHT22;23767;42.024;23.086;2024-01-27T09:05:17;4.30;99.90
37944;DHT22;23767;42.024;23.086;2024-01-27T09:07:43;4.40;99.90
37944;DHT22;23767;42.024;23.086;2024-01-27T09:10:08;4.30;99.90
37944;DHT22;23767;42.024;23.086;2024-01-27T09:12:37;4.30;99.90
37944;DHT22;23767;42.024;23.086;2024-01-27T09:15:04;4.10;99.90
37944;DHT22;23767;42.024;23.086;2024-01-27T09:17:29;4.20;99.90
37944;DHT22;23767;42.024;23.086;2024-01-27T09:19:55;4.40;99.90
37944;DHT22;23767;42.024;23.086;2024-01-27T09:22:21;4.60;99.90
37944;DHT22;23767;42.024;23.086;2024-01-27T09:24:46;4.70;99.90
37944;DHT22;23767;42.024;23.086;2024-01-27T09:27:12;4.80;99.90
37944;DHT22;23767;42.024;23.086;2024-01-27T09:29:38;5.00;99.90
37944;DHT22;23767;42.024;23.086;2024-01-27T09:32:04;5.20;99.90
37944;DHT22;23767;42.024;23.086;2024-01-27T09:34:30;5.20;99.90
37944;DHT22;23767;42.024;23.086;2024-01-27T09:36:55;5.20;99.90
37944;DHT22;23767;42.024;23.086;2024-01-27T09:39:21;5.30;99.90
37944;DHT22;23767;42.024;23.086;2024-01-27T09:41:48;5.50;99.90
37944;DHT22;23767;42.024;23.086;2024-01-27T09:44:18;5.60;99.90
37944;DHT22;23767;42.024;23.086;2024-01-27T09:46:45;5.70;99.90
37944;DHT22;23767;42.024;23.086;2024-01-27T09:49:12;5.70;99.90
37944;DHT22;23767;42.024;23.086;2024-01-27T09:51:40;5.90;99.90
37944;DHT22;23767;42.024;23.086;2024-01-27T09:54:06;5.90;99.90
37944;DHT22;23767;42.024;23.086;2024-01-27T09:56:32;6.00;99.90
37944;DHT22;23767;42.024;23.086;2024-01-27T09:59:00;5.90;99.90
37944;DHT22;23767;42.024;23.086;2024-01-27T10:01:27;5.90;99.90
37944;DHT22;23767;42.024;23.086;2024-01-27T10:03:54;5.70;99.90
37944;DHT22;23767;42.024;23.086;2024-01-27T10:06:21;5.70;99.90
37944;DHT22;23767;42.024;23.086;2024-01-27T10:08:56;5.70;99.90
37944;DHT22;23767;42.024;23.086;2024-01-27T10:11:23;5.70;99.90
37944;DHT22;23767;42.024;23.086;2024-01-27T10:13:55;5.70;99.90
37944;DHT22;23767;42.024;23.086;2024-01-27T10:16:21;5.60;99.90
37944;DHT22;23767;42.024;23.086;2024-01-27T10:18:47;5.60;99.90
37944;DHT22;23767;42.024;23.086;2024-01-27T10:21:17;5.60;99.90
37944;DHT22;23767;42.024;23.086;2024-01-27T10:23:43;5.60;99.90
37944;DHT22;23767;42.024;23.086;2024-01-27T10:26:09;5.60;99.90
37944;DHT22;23767;42.024;23.086;2024-01-27T10:28:35;5.60;99.90
37944;DHT22;23767;42.024;23.086;2024-01-27T10:31:10;5.70;99.90
37944;DHT22;23767;42.024;23.086;2024-01-27T10:33:36;5.60;99.90
37944;DHT22;23767;42.024;23.086;2024-01-27T10:36:02;5.60;99.90
37944;DHT22;23767;42.024;23.086;2024-01-27T10:38:38;5.60;99.90
37944;DHT22;23767;42.024;23.086;2024-01-27T10:41:08;5.70;99.90
37944;DHT22;23767;42.024;23.086;2024-01-27T10:43:39;5.70;99.90
37944;DHT22;23767;42.024;23.086;2024-01-27T10:46:06;5.70;99.90
37944;DHT22;23767;42.024;23.086;2024-01-27T10:48:37;5.50;99.90
37944;DHT22;23767;42.024;23.086;2024-01-27T10:51:10;5.50;99.90
37944;DHT22;23767;42.024;23.086;2024-01-27T10:53:36;5.30;99.90
37944;DHT22;23767;42.024;23.086;2024-01-27T10:56:06;5.40;99.90
37944;DHT22;23767;42.024;23.086;2024-01-27T10:58:35;5.50;99.90
37944;DHT22;23767;42.024;23.086;2024-01-27T11:01:11;5.20;99.90
37944;DHT22;23767;42.024;23.086;2024-01-27T11:03:40;5.30;99.90
37944;DHT22;23767;42.024;23.086;2024-01-27T11:06:07;5.40;99.90
37944;DHT22;23767;42.024;23.086;2024-01-27T11:08:37;5.30;99.90
37944;DHT22;23767;42.024;23.086;2024-01-27T11:11:03;5.50;99.90
37944;DHT22;23767;42.024;23.086;2024-01-27T11:13:30;5.50;99.90
37944;DHT22;23767;42.024;23.086;2024-01-27T11:15:57;5.60;99.90
37944;DHT22;23767;42.024;23.086;2024-01-27T11:18:24;5.60;99.90
37944;DHT22;23767;42.024;23.086;2024-01-27T11:20:54;5.60;99.90
37944;DHT22;23767;42.024;23.086;2024-01-27T11:23:20;5.60;99.90
37944;DHT22;23767;42.024;23.086;2024-01-27T11:25:45;5.60;99.90
37944;DHT22;23767;42.024;23.086;2024-01-27T11:28:13;5.70;99.90
37944;DHT22;23767;42.024;23.086;2024-01-27T11:30:40;5.80;99.90
37944;DHT22;23767;42.024;23.086;2024-01-27T11:33:10;5.90;99.90
37944;DHT22;23767;42.024;23.086;2024-01-27T11:35:36;6.00;99.90
37944;DHT22;23767;42.024;23.086;2024-01-27T11:38:02;6.00;99.90
37944;DHT22;23767;42.024;23.086;2024-01-27T11:40:27;6.00;99.90
37944;DHT22;23767;42.024;23.086;2024-01-27T11:42:58;6.10;99.90
37944;DHT22;23767;42.024;23.086;2024-01-27T11:45:24;6.10;99.90
37944;DHT22;23767;42.024;23.086;2024-01-27T11:47:50;6.10;99.90
37944;DHT22;23767;42.024;23.086;2024-01-27T11:50:19;6.10;99.90
37944;DHT22;23767;42.024;23.086;2024-01-27T11:52:46;5.90;99.90
37944;DHT22;23767;42.024;23.086;2024-01-27T11:55:12;5.80;99.90
37944;DHT22;23767;42.024;23.086;2024-01-27T11:57:37;5.80;99.90
37944;DHT22;23767;42.024;23.086;2024-01-27T12:00:04;5.70;99.90
37944;DHT22;23767;42.024;23.086;2024-01-27T12:02:30;5.80;99.90
37944;DHT22;23767;42.024;23.086;2024-01-27T12:04:55;5.40;99.90
37944;DHT22;23767;42.024;23.086;2024-01-27T12:07:21;5.30;99.90
37944;DHT22;23767;42.024;23.086;2024-01-27T12:09:50;5.10;99.90
37944;DHT22;23767;42.024;23.086;2024-01-27T12:12:16;5.00;99.90
37944;DHT22;23767;42.024;23.086;2024-01-27T12:14:45;5.30;99.90
37944;DHT22;23767;42.024;23.086;2024-01-27T12:17:11;5.50;99.90
37944;DHT22;23767;42.024;23.086;2024-01-27T12:19:38;5.60;99.90
37944;DHT22;23767;42.024;23.086;2024-01-27T12:22:18;5.70;99.90
37944;DHT22;23767;42.024;23.086;2024-01-27T12:24:46;5.80;99.90
37944;DHT22;23767;42.024;23.086;2024-01-27T12:27:11;6.00;99.90
37944;DHT22;23767;42.024;23.086;2024-01-27T12:29:37;6.20;99.90
37944;DHT22;23767;42.024;23.086;2024-01-27T12:32:03;6.30;99.90
37944;DHT22;23767;42.024;23.086;2024-01-27T12:34:29;6.40;99.90
37944;DHT22;23767;42.024;23.086;2024-01-27T12:36:55;6.50;99.90
37944;DHT22;23767;42.024;23.086;2024-01-27T12:39:22;6.60;99.90
37944;DHT22;23767;42.024;23.086;2024-01-27T12:41:48;6.60;99.90
37944;DHT22;23767;42.024;23.086;2024-01-27T12:44:13;6.60;99.90
37944;DHT22;23767;42.024;23.086;2024-01-27T12:46:39;6.70;99.90
37944;DHT22;23767;42.024;23.086;2024-01-27T12:49:05;6.70;99.90
37944;DHT22;23767;42.024;23.086;2024-01-27T12:51:31;6.70;99.90
37944;DHT22;23767;42.024;23.086;2024-01-27T12:53:57;6.70;99.90
37944;DHT22;23767;42.024;23.086;2024-01-27T12:56:22;6.80;99.90
37944;DHT22;23767;42.024;23.086;2024-01-27T12:58:48;6.80;99.90
37944;DHT22;23767;42.024;23.086;2024-01-27T13:01:14;6.70;98.20
37944;DHT22;23767;42.024;23.086;2024-01-27T13:03:40;6.70;98.80
37944;DHT22;23767;42.024;23.086;2024-01-27T13:06:06;6.80;99.90
37944;DHT22;23767;42.024;23.086;2024-01-27T13:08:32;7.00;99.90
37944;DHT22;23767;42.024;23.086;2024-01-27T13:10:58;7.00;99.90
37944;DHT22;23767;42.024;23.086;2024-01-27T13:13:24;7.10;99.70
37944;DHT22;23767;42.024;23.086;2024-01-27T13:15:50;7.00;97.90
37944;DHT22;23767;42.024;23.086;2024-01-27T13:18:15;6.90;94.90
37944;DHT22;23767;42.024;23.086;2024-01-27T13:20:41;6.80;94.20
37944;DHT22;23767;42.024;23.086;2024-01-27T13:23:07;6.80;94.60
37944;DHT22;23767;42.024;23.086;2024-01-27T13:25:33;6.70;93.60
37944;DHT22;23767;42.024;23.086;2024-01-27T13:27:58;6.70;93.60
37944;DHT22;23767;42.024;23.086;2024-01-27T13:30:24;6.70;94.20
37944;DHT22;23767;42.024;23.086;2024-01-27T13:32:50;6.70;93.40
37944;DHT22;23767;42.024;23.086;2024-01-27T13:35:16;6.80;94.00
37944;DHT22;23767;42.024;23.086;2024-01-27T13:37:42;6.80;93.60
37944;DHT22;23767;42.024;23.086;2024-01-27T13:40:08;6.70;93.30
37944;DHT22;23767;42.024;23.086;2024-01-27T13:42:36;6.70;92.80
37944;DHT22;23767;42.024;23.086;2024-01-27T13:45:02;6.70;93.50
37944;DHT22;23767;42.024;23.086;2024-01-27T13:47:28;6.60;93.30
37944;DHT22;23767;42.024;23.086;2024-01-27T13:49:54;6.60;93.00
37944;DHT22;23767;42.024;23.086;2024-01-27T13:52:19;6.50;93.30
37944;DHT22;23767;42.024;23.086;2024-01-27T13:54:45;6.40;93.30
37944;DHT22;23767;42.024;23.086;2024-01-27T13:57:11;6.40;92.60
37944;DHT22;23767;42.024;23.086;2024-01-27T13:59:37;6.40;92.60
37944;DHT22;23767;42.024;23.086;2024-01-27T14:02:03;6.40;92.90
37944;DHT22;23767;42.024;23.086;2024-01-27T14:04:29;6.50;92.10
37944;DHT22;23767;42.024;23.086;2024-01-27T14:06:55;6.50;92.60
37944;DHT22;23767;42.024;23.086;2024-01-27T14:09:22;6.50;92.80
37944;DHT22;23767;42.024;23.086;2024-01-27T14:11:48;6.50;92.10
37944;DHT22;23767;42.024;23.086;2024-01-27T14:14:14;6.50;91.70
37944;DHT22;23767;42.024;23.086;2024-01-27T14:16:39;6.40;91.50
37944;DHT22;23767;42.024;23.086;2024-01-27T14:19:06;6.40;92.10
37944;DHT22;23767;42.024;23.086;2024-01-27T14:21:33;6.50;92.20
37944;DHT22;23767;42.024;23.086;2024-01-27T14:23:59;6.60;92.90
37944;DHT22;23767;42.024;23.086;2024-01-27T14:26:30;6.60;93.20
37944;DHT22;23767;42.024;23.086;2024-01-27T14:28:56;6.60;93.50
37944;DHT22;23767;42.024;23.086;2024-01-27T14:31:22;6.40;93.50
37944;DHT22;23767;42.024;23.086;2024-01-27T14:33:48;6.40;93.60
37944;DHT22;23767;42.024;23.086;2024-01-27T14:36:14;6.30;93.50
37944;DHT22;23767;42.024;23.086;2024-01-27T14:38:42;6.20;94.10
37944;DHT22;23767;42.024;23.086;2024-01-27T14:41:08;6.20;94.70
37944;DHT22;23767;42.024;23.086;2024-01-27T14:43:34;6.20;95.00
37944;DHT22;23767;42.024;23.086;2024-01-27T14:45:59;6.20;93.70
37944;DHT22;23767;42.024;23.086;2024-01-27T14:48:25;6.30;93.30
37944;DHT22;23767;42.024;23.086;2024-01-27T14:50:51;6.30;92.90
37944;DHT22;23767;42.024;23.086;2024-01-27T14:53:24;6.20;92.60
37944;DHT22;23767;42.024;23.086;2024-01-27T14:55:50;6.20;92.10
37944;DHT22;23767;42.024;23.086;2024-01-27T14:58:16;6.20;92.60
37944;DHT22;23767;42.024;23.086;2024-01-27T15:00:43;6.30;91.30
37944;DHT22;23767;42.024;23.086;2024-01-27T15:03:09;6.30;90.90
37944;DHT22;23767;42.024;23.086;2024-01-27T15:05:35;6.20;90.60
37944;DHT22;23767;42.024;23.086;2024-01-27T15:08:06;6.20;90.60
37944;DHT22;23767;42.024;23.086;2024-01-27T15:10:32;6.20;90.20
37944;DHT22;23767;42.024;23.086;2024-01-27T15:12:58;6.20;90.20
37944;DHT22;23767;42.024;23.086;2024-01-27T15:15:25;6.30;90.00
37944;DHT22;23767;42.024;23.086;2024-01-27T15:17:51;6.20;89.70
37944;DHT22;23767;42.024;23.086;2024-01-27T15:20:16;6.20;89.60
37944;DHT22;23767;42.024;23.086;2024-01-27T15:22:42;6.10;89.90
37944;DHT22;23767;42.024;23.086;2024-01-27T15:25:08;6.10;89.60